createdAt,value
2022-08-18T00:02:43.574Z,20.73
2022-08-18T00:08:04.191Z,20.70
2022-08-18T00:13:08.759Z,20.78
2022-08-18T00:18:11.681Z,20.65
2022-08-18T00:23:15.077Z,20.76
2022-08-18T00:28:19.823Z,20.61
2022-08-18T00:33:26.962Z,20.58
2022-08-18T00:38:30.034Z,20.43
2022-08-18T00:43:40.063Z,20.40
2022-08-18T00:48:48.435Z,20.37
2022-08-18T00:53:57.274Z,20.28
2022-08-18T00:59:08.245Z,20.35
2022-08-18T01:04:16.688Z,20.21
2022-08-18T01:09:20.311Z,20.01
2022-08-18T01:14:25.111Z,19.92
2022-08-18T01:19:47.182Z,19.76
2022-08-18T01:25:14.204Z,19.70
2022-08-18T01:30:17.644Z,19.65
2022-08-18T01:35:25.787Z,19.60
2022-08-18T01:41:27.425Z,19.51
2022-08-18T01:45:53.975Z,19.50
2022-08-18T01:50:57.380Z,19.53
2022-08-18T01:56:05.593Z,19.50
2022-08-18T02:01:08.584Z,19.42
2022-08-18T02:06:14.871Z,19.48
2022-08-18T02:11:19.407Z,19.50
2022-08-18T02:16:22.489Z,19.37
2022-08-18T02:21:25.573Z,19.26
2022-08-18T02:26:30.097Z,19.21
2022-08-18T02:31:32.996Z,19.22
2022-08-18T02:36:35.949Z,19.20
2022-08-18T02:41:40.654Z,19.09
2022-08-18T02:46:44.006Z,19.02
2022-08-18T02:51:47.214Z,19.05
2022-08-18T02:56:53.141Z,19.01
2022-08-18T03:01:57.374Z,18.95
2022-08-18T03:07:04.123Z,18.92
2022-08-18T03:12:09.391Z,18.81
2022-08-18T03:17:15.441Z,18.80
2022-08-18T03:22:28.411Z,18.67
2022-08-18T03:27:34.109Z,18.68
2022-08-18T03:32:37.167Z,18.72
2022-08-18T03:37:40.913Z,18.67
2022-08-18T03:42:45.422Z,18.71
2022-08-18T03:47:50.377Z,18.70
2022-08-18T03:52:53.985Z,18.69
2022-08-18T04:03:25.330Z,18.89
2022-08-18T04:08:28.242Z,18.94
2022-08-18T04:13:36.706Z,19.05
2022-08-18T04:18:39.751Z,19.12
2022-08-18T04:23:44.129Z,19.27
2022-08-18T04:28:49.304Z,19.43
2022-08-18T04:33:53.045Z,19.43
2022-08-18T04:38:56.829Z,19.62
2022-08-18T04:44:03.808Z,19.68
2022-08-18T04:49:08.260Z,19.68
2022-08-18T04:54:12.543Z,19.89
2022-08-18T04:59:17.354Z,20.03
2022-08-18T05:04:20.671Z,20.21
2022-08-18T05:09:23.666Z,20.30
2022-08-18T05:14:28.701Z,20.50
2022-08-18T05:19:32.453Z,20.71
2022-08-18T05:24:37.310Z,20.91
2022-08-18T05:29:45.706Z,21.09
2022-08-18T05:34:50.347Z,21.23
2022-08-18T05:39:58.926Z,21.39
2022-08-18T05:45:08.030Z,21.52
2022-08-18T05:50:14.083Z,21.92
2022-08-18T05:55:39.830Z,22.22
2022-08-18T06:00:58.771Z,22.50
2022-08-18T06:06:11.142Z,22.95
2022-08-18T06:11:22.779Z,23.16
2022-08-18T06:16:44.571Z,23.51
2022-08-18T06:21:57.414Z,23.67
2022-08-18T06:27:07.895Z,23.72
2022-08-18T06:32:23.392Z,23.81
2022-08-18T06:37:33.879Z,24.10
2022-08-18T06:42:40.377Z,24.38
2022-08-18T06:47:55.037Z,24.54
2022-08-18T06:53:00.619Z,24.62
2022-08-18T06:58:07.875Z,24.69
2022-08-18T07:03:15.760Z,24.53
2022-08-18T07:08:31.031Z,24.80
2022-08-18T07:13:39.580Z,25.07
2022-08-18T07:18:47.354Z,25.25
2022-08-18T07:24:23.198Z,25.62
2022-08-18T07:29:22.627Z,25.84
2022-08-18T07:34:37.440Z,25.74
2022-08-18T07:39:48.460Z,25.94
2022-08-18T07:44:55.277Z,26.11
2022-08-18T07:50:20.548Z,26.41
2022-08-18T07:55:30.271Z,26.39
2022-08-18T08:06:13.540Z,26.75
2022-08-18T08:11:29.001Z,26.65
2022-08-18T08:16:42.560Z,26.80
2022-08-18T08:21:54.077Z,27.02
2022-08-18T08:27:02.463Z,27.05
2022-08-18T08:32:11.236Z,27.39
2022-08-18T08:37:20.606Z,27.35
2022-08-18T08:42:35.394Z,27.60
2022-08-18T08:47:52.370Z,27.49
2022-08-18T08:53:05.239Z,27.40
2022-08-18T08:58:18.972Z,27.55
2022-08-18T09:03:32.108Z,27.50
2022-08-18T09:08:55.151Z,27.82
2022-08-18T09:14:24.683Z,27.94
2022-08-18T09:19:45.975Z,27.88
2022-08-18T09:24:53.120Z,28.13
2022-08-18T09:29:59.330Z,28.33
2022-08-18T09:35:17.577Z,28.21
2022-08-18T09:46:06.102Z,28.63
2022-08-18T09:51:35.008Z,28.61
2022-08-18T09:57:07.614Z,28.71
2022-08-18T10:07:41.942Z,28.30
2022-08-18T10:13:15.792Z,28.76
2022-08-18T10:18:32.461Z,28.93
2022-08-18T10:24:14.593Z,28.99
2022-08-18T10:29:51.733Z,28.94
2022-08-18T10:35:00.707Z,29.09
2022-08-18T10:40:16.363Z,29.12
2022-08-18T10:45:30.902Z,29.13
2022-08-18T10:50:42.565Z,29.17
2022-08-18T10:55:53.863Z,29.27
2022-08-18T11:01:03.699Z,29.21
2022-08-18T11:06:21.138Z,29.32
2022-08-18T11:11:34.487Z,29.38
2022-08-18T11:16:54.408Z,29.30
2022-08-18T11:21:58.873Z,29.38
2022-08-18T11:27:03.810Z,29.30
2022-08-18T11:32:20.208Z,29.35
2022-08-18T11:37:51.600Z,29.31
2022-08-18T11:43:00.351Z,29.34
2022-08-18T11:48:25.110Z,29.37
2022-08-18T11:53:44.186Z,29.43
2022-08-18T11:58:50.513Z,29.46
2022-08-18T12:03:53.843Z,29.44
2022-08-18T12:09:03.093Z,29.56
2022-08-18T12:14:30.377Z,29.53
2022-08-18T12:24:58.298Z,29.60
2022-08-18T12:30:02.467Z,29.64
2022-08-18T12:35:09.495Z,29.54
2022-08-18T12:40:14.693Z,29.51
2022-08-18T12:45:18.090Z,29.52
2022-08-18T12:55:47.561Z,29.83
2022-08-18T13:00:53.865Z,29.67
2022-08-18T13:05:57.067Z,29.92
2022-08-18T13:11:14.513Z,30.06
2022-08-18T13:16:39.090Z,30.25
2022-08-18T13:21:42.917Z,30.40
2022-08-18T13:26:48.675Z,30.48
2022-08-18T13:31:57.833Z,30.39
2022-08-18T13:37:00.919Z,30.38
2022-08-18T13:42:21.715Z,30.30
2022-08-18T13:47:31.448Z,30.34
2022-08-18T13:52:44.646Z,30.25
2022-08-18T13:57:49.905Z,30.32
2022-08-18T14:02:54.055Z,30.34
2022-08-18T14:07:58.724Z,30.38
2022-08-18T14:13:11.985Z,30.36
2022-08-18T14:18:29.247Z,30.33
2022-08-18T14:24:05.902Z,30.27
2022-08-18T14:29:16.510Z,30.22
2022-08-18T14:34:21.832Z,30.18
2022-08-18T14:39:33.377Z,30.22
2022-08-18T14:44:37.749Z,30.08
2022-08-18T14:49:48.035Z,30.13
2022-08-18T14:54:51.851Z,30.05
2022-08-18T14:59:59.770Z,30.09
2022-08-18T15:05:19.228Z,30.07
2022-08-18T15:10:23.359Z,30.12
2022-08-18T15:15:50.819Z,30.00
2022-08-18T15:21:19.566Z,30.02
2022-08-18T15:26:38.750Z,30.12
2022-08-18T15:31:55.458Z,29.92
2022-08-18T15:37:09.562Z,29.83
2022-08-18T15:42:13.873Z,29.85
2022-08-18T15:47:21.038Z,29.72
2022-08-18T15:52:25.948Z,29.86
2022-08-18T15:57:51.882Z,29.79
2022-08-18T16:02:57.797Z,29.76
2022-08-18T16:08:01.490Z,29.62
2022-08-18T16:13:05.811Z,29.58
2022-08-18T16:18:10.841Z,29.50
2022-08-18T16:23:14.017Z,29.35
2022-08-18T16:28:17.119Z,29.28
2022-08-18T16:33:22.134Z,29.21
2022-08-18T16:38:25.952Z,29.07
2022-08-18T16:43:30.386Z,28.97
2022-08-18T16:48:35.195Z,28.76
2022-08-18T16:53:39.780Z,28.53
2022-08-18T16:59:02.349Z,28.44
2022-08-18T17:04:14.691Z,28.30
2022-08-18T17:09:25.216Z,28.16
2022-08-18T17:14:31.401Z,28.04
2022-08-18T17:19:37.745Z,27.89
2022-08-18T17:24:49.366Z,27.69
2022-08-18T17:29:58.874Z,27.54
2022-08-18T17:35:06.331Z,27.36
2022-08-18T17:40:15.935Z,27.17
2022-08-18T17:45:21.697Z,26.98
2022-08-18T17:50:49.603Z,27.00
2022-08-18T17:56:00.145Z,26.92
2022-08-18T18:01:06.549Z,26.82
2022-08-18T18:06:16.846Z,26.56
2022-08-18T18:11:25.635Z,26.37
2022-08-18T18:16:35.562Z,26.18
2022-08-18T18:22:00.119Z,26.10
2022-08-18T18:27:24.358Z,26.05
2022-08-18T18:32:30.609Z,25.94
2022-08-18T18:37:44.016Z,25.89
2022-08-18T18:42:51.269Z,25.83
2022-08-18T18:48:03.749Z,25.80
2022-08-18T18:53:20.140Z,25.74
2022-08-18T18:58:32.722Z,25.62
2022-08-18T19:03:44.191Z,25.56
2022-08-18T19:08:56.410Z,25.50
2022-08-18T19:14:02.961Z,25.37
2022-08-18T19:19:35.962Z,25.28
2022-08-18T19:25:05.484Z,25.08
2022-08-18T19:30:13.657Z,25.05
2022-08-18T19:35:19.898Z,24.91
2022-08-18T19:40:29.359Z,24.73
2022-08-18T19:45:36.909Z,24.60
2022-08-18T19:50:46.122Z,24.56
2022-08-18T19:56:04.896Z,24.49
2022-08-18T20:01:21.134Z,24.62
2022-08-18T20:06:52.863Z,24.59
2022-08-18T20:12:38.756Z,24.50
2022-08-18T20:18:00.812Z,24.45
2022-08-18T20:23:32.294Z,24.43
2022-08-18T20:28:39.189Z,24.26
2022-08-18T20:33:47.113Z,24.18
2022-08-18T20:38:53.887Z,24.14
2022-08-18T20:44:09.400Z,24.20
2022-08-18T20:49:23.201Z,24.12
2022-08-18T20:54:50.245Z,24.01
2022-08-18T21:00:11.215Z,23.92
2022-08-18T21:05:28.019Z,23.83
2022-08-18T21:10:34.663Z,23.85
2022-08-18T21:15:38.840Z,23.90
2022-08-18T21:20:42.230Z,23.79
2022-08-18T21:25:53.777Z,23.68
2022-08-18T21:31:42.965Z,23.70
2022-08-18T21:36:25.592Z,23.60
2022-08-18T21:41:32.582Z,23.52
2022-08-18T21:46:36.024Z,23.53
2022-08-18T21:51:45.756Z,23.36
2022-08-18T21:57:21.069Z,23.34
2022-08-18T22:02:24.249Z,23.23
2022-08-18T22:07:34.998Z,23.18
2022-08-18T22:13:10.104Z,23.12
2022-08-18T22:18:39.884Z,23.13
2022-08-18T22:24:04.644Z,23.16
2022-08-18T22:29:21.841Z,23.15
2022-08-18T22:34:28.837Z,23.01
2022-08-18T22:39:35.203Z,23.10
2022-08-18T22:44:40.602Z,23.09
2022-08-18T22:49:45.461Z,22.94
2022-08-18T22:54:49.552Z,22.81
2022-08-18T22:59:55.426Z,22.81
2022-08-18T23:05:01.880Z,22.69
2022-08-18T23:10:12.528Z,22.67
2022-08-18T23:15:19.493Z,22.64
2022-08-18T23:20:22.765Z,22.53
2022-08-18T23:25:31.014Z,22.39
2022-08-18T23:30:35.681Z,22.27
2022-08-18T23:35:39.769Z,22.21
2022-08-18T23:40:45.208Z,22.09
2022-08-18T23:45:50.276Z,22.04
2022-08-18T23:50:53.163Z,21.89
2022-08-18T23:55:56.043Z,21.85
